createdAt,value
2018-04-23T00:00:50.580Z,0.00
2018-04-23T00:01:50.615Z,0.00
2018-04-23T00:02:50.637Z,0.00
2018-04-23T00:03:50.645Z,0.00
2018-04-23T00:04:50.666Z,0.00
2018-04-23T00:05:50.687Z,0.00
2018-04-23T00:06:50.709Z,0.00
2018-04-23T00:07:50.733Z,0.00
2018-04-23T00:08:50.752Z,0.00
2018-04-23T00:09:50.787Z,0.00
2018-04-23T00:10:50.808Z,0.00
2018-04-23T00:11:50.829Z,0.00
2018-04-23T00:12:50.851Z,0.00
2018-04-23T00:13:50.871Z,0.00
2018-04-23T00:14:50.904Z,0.00
2018-04-23T00:15:50.915Z,0.00
2018-04-23T00:16:50.937Z,0.00
2018-04-23T00:17:50.969Z,0.00
2018-04-23T00:18:51.003Z,0.00
2018-04-23T00:19:51.011Z,0.00
2018-04-23T00:20:51.036Z,0.00
2018-04-23T00:21:51.055Z,0.00
2018-04-23T00:22:51.081Z,0.00
2018-04-23T00:23:51.097Z,0.00
2018-04-23T00:24:51.119Z,0.00
2018-04-23T00:25:51.142Z,0.00
2018-04-23T00:26:51.175Z,0.00
2018-04-23T00:27:51.196Z,0.00
2018-04-23T00:28:51.223Z,0.00
2018-04-23T00:29:51.240Z,0.00
2018-04-23T00:30:51.260Z,0.00
2018-04-23T00:31:51.293Z,0.00
2018-04-23T00:32:51.303Z,0.00
2018-04-23T00:33:51.325Z,0.00
2018-04-23T00:34:51.357Z,0.00
2018-04-23T00:35:51.380Z,0.00
2018-04-23T00:36:51.400Z,0.00
2018-04-23T00:37:51.421Z,0.00
2018-04-23T00:38:51.443Z,0.00
2018-04-23T00:39:51.465Z,0.00
2018-04-23T00:40:51.486Z,0.00
2018-04-23T00:41:51.507Z,0.00
2018-04-23T00:42:51.530Z,0.00
2018-04-23T00:43:51.563Z,0.00
2018-04-23T00:44:51.584Z,0.00
2018-04-23T00:45:51.606Z,0.00
2018-04-23T00:46:51.627Z,0.00
2018-04-23T00:47:51.648Z,0.00
2018-04-23T00:48:51.682Z,0.00
2018-04-23T00:49:51.694Z,0.00
2018-04-23T00:50:51.713Z,0.00
2018-04-23T00:51:51.745Z,0.00
2018-04-23T00:52:51.769Z,0.00
2018-04-23T00:53:51.789Z,0.00
2018-04-23T00:54:51.810Z,0.00
2018-04-23T00:55:51.835Z,0.00
2018-04-23T00:56:51.853Z,0.00
2018-04-23T00:57:51.874Z,0.00
2018-04-23T00:58:51.908Z,0.00
2018-04-23T00:59:51.917Z,0.00
2018-04-23T01:00:51.939Z,0.00
2018-04-23T01:01:51.973Z,0.00
2018-04-23T01:02:52.001Z,0.00
2018-04-23T01:03:52.016Z,0.00
2018-04-23T01:04:52.037Z,0.00
2018-04-23T01:05:52.063Z,0.00
2018-04-23T01:06:52.079Z,0.00
2018-04-23T01:07:52.101Z,0.00
2018-04-23T01:08:52.122Z,0.00
2018-04-23T01:09:52.144Z,0.00
2018-04-23T01:10:52.165Z,0.00
2018-04-23T01:11:52.199Z,0.00
2018-04-23T01:12:52.220Z,0.00
2018-04-23T01:13:52.241Z,0.00
2018-04-23T01:14:52.263Z,0.00
2018-04-23T01:15:52.296Z,0.00
2018-04-23T01:16:52.305Z,0.00
2018-04-23T01:17:52.327Z,0.00
2018-04-23T01:18:52.348Z,0.00
2018-04-23T01:19:52.370Z,0.00
2018-04-23T01:20:52.392Z,0.00
2018-04-23T01:21:52.425Z,0.00
2018-04-23T01:22:52.447Z,0.00
2018-04-23T01:23:52.467Z,0.00
2018-04-23T01:24:52.498Z,0.00
2018-04-23T01:25:52.511Z,0.00
2018-04-23T01:26:52.532Z,0.00
2018-04-23T01:27:52.554Z,0.00
2018-04-23T01:28:52.578Z,0.00
2018-04-23T01:29:52.596Z,0.00
2018-04-23T01:30:52.618Z,0.00
2018-04-23T01:31:52.651Z,0.00
2018-04-23T01:32:52.685Z,0.00
2018-04-23T01:33:52.698Z,0.00
2018-04-23T01:34:52.715Z,0.00
2018-04-23T01:35:52.737Z,0.00
2018-04-23T01:36:52.758Z,0.00
2018-04-23T01:37:52.779Z,0.00
2018-04-23T01:38:52.800Z,0.00
2018-04-23T01:39:52.821Z,0.00
2018-04-23T01:40:52.843Z,0.00
2018-04-23T01:41:52.878Z,0.00
2018-04-23T01:42:52.902Z,0.00
2018-04-23T01:43:52.921Z,0.00
2018-04-23T01:44:52.946Z,0.00
2018-04-23T01:45:52.965Z,0.00
2018-04-23T01:46:52.985Z,0.00
2018-04-23T01:47:53.006Z,0.00
2018-04-23T01:48:53.027Z,0.00
2018-04-23T01:49:53.049Z,0.00
2018-04-23T01:50:53.070Z,0.00
2018-04-23T01:51:53.092Z,0.00
2018-04-23T01:52:53.113Z,0.00
2018-04-23T01:53:53.135Z,0.00
2018-04-23T01:54:53.158Z,0.00
2018-04-23T01:55:53.189Z,0.00
2018-04-23T01:56:53.210Z,0.00
2018-04-23T01:57:53.235Z,0.00
2018-04-23T01:58:53.254Z,0.00
2018-04-23T01:59:53.275Z,0.00
2018-04-23T02:00:53.296Z,0.00
2018-04-23T02:01:53.317Z,0.00
2018-04-23T02:02:53.341Z,0.00
2018-04-23T02:03:53.360Z,0.00
2018-04-23T02:04:53.381Z,0.00
2018-04-23T02:05:53.403Z,0.00
2018-04-23T02:06:53.423Z,0.00
2018-04-23T02:07:53.458Z,0.00
2018-04-23T02:08:53.467Z,0.00
2018-04-23T02:09:53.488Z,0.00
2018-04-23T02:10:53.509Z,0.00
2018-04-23T02:11:53.532Z,0.00
2018-04-23T02:12:53.553Z,0.00
2018-04-23T02:13:53.581Z,0.00
2018-04-23T02:14:53.608Z,0.00
2018-04-23T02:15:53.633Z,0.00
2018-04-23T02:16:53.658Z,0.00
2018-04-23T02:17:53.676Z,0.00
2018-04-23T02:18:53.694Z,0.00
2018-04-23T02:19:53.718Z,0.00
2018-04-23T02:20:53.737Z,0.00
2018-04-23T02:21:53.758Z,0.00
2018-04-23T02:22:53.803Z,0.00
2018-04-23T02:23:53.800Z,0.00
2018-04-23T02:24:53.823Z,0.00
2018-04-23T02:25:53.844Z,0.00
2018-04-23T02:26:53.865Z,0.00
2018-04-23T02:27:53.886Z,0.00
2018-04-23T02:28:53.911Z,0.00
2018-04-23T02:29:53.929Z,0.00
2018-04-23T02:30:53.951Z,0.00
2018-04-23T02:31:53.972Z,0.00
2018-04-23T02:32:53.997Z,0.00
2018-04-23T02:33:54.017Z,0.00
2018-04-23T02:34:54.048Z,0.00
2018-04-23T02:35:54.068Z,0.00
2018-04-23T02:36:54.097Z,0.00
2018-04-23T02:37:54.112Z,0.00
2018-04-23T02:38:54.133Z,0.00
2018-04-23T02:39:54.155Z,0.00
2018-04-23T02:40:54.176Z,0.00
2018-04-23T02:41:54.198Z,0.00
2018-04-23T02:42:54.219Z,0.00
2018-04-23T02:43:54.240Z,0.00
2018-04-23T02:44:54.266Z,0.00
2018-04-23T02:45:54.283Z,0.00
2018-04-23T02:46:54.305Z,0.00
2018-04-23T02:47:54.325Z,0.00
2018-04-23T02:48:54.347Z,0.00
2018-04-23T02:49:54.369Z,0.00
2018-04-23T02:50:54.390Z,0.00
2018-04-23T02:51:54.413Z,0.00
2018-04-23T02:52:54.432Z,0.00
2018-04-23T02:53:54.453Z,0.00
2018-04-23T02:54:54.476Z,0.00
2018-04-23T02:55:54.497Z,0.00
2018-04-23T02:56:54.518Z,0.00
2018-04-23T02:57:54.543Z,0.00
2018-04-23T02:58:54.562Z,0.00
2018-04-23T02:59:54.583Z,0.00
2018-04-23T03:00:54.617Z,0.00
2018-04-23T03:01:54.626Z,0.00
2018-04-23T03:02:54.648Z,0.00
2018-04-23T03:03:54.684Z,0.00
2018-04-23T03:04:54.691Z,0.00
2018-04-23T03:05:54.724Z,0.00
2018-04-23T03:06:54.744Z,0.00
2018-04-23T03:07:54.767Z,0.00
2018-04-23T03:08:54.788Z,0.00
2018-04-23T03:09:54.809Z,0.00
2018-04-23T03:10:54.830Z,0.00
2018-04-23T03:11:54.856Z,0.00
2018-04-23T03:12:54.873Z,0.00
2018-04-23T03:13:54.895Z,0.00
2018-04-23T03:14:54.916Z,0.00
2018-04-23T03:15:54.937Z,0.00
2018-04-23T03:16:54.958Z,4.00
2018-04-23T03:17:54.980Z,4.00
2018-04-23T03:18:55.001Z,4.00
2018-04-23T03:19:55.024Z,0.00
2018-04-23T03:20:55.044Z,4.00
2018-04-23T03:21:55.067Z,4.00
2018-04-23T03:22:55.095Z,4.00
2018-04-23T03:23:55.108Z,8.00
2018-04-23T03:24:55.129Z,4.00
2018-04-23T03:25:55.151Z,8.00
2018-04-23T03:26:55.172Z,8.00
2018-04-23T03:27:55.193Z,12.00
2018-04-23T03:28:55.215Z,12.00
2018-04-23T03:29:55.236Z,16.00
2018-04-23T03:30:55.259Z,16.00
2018-04-23T03:31:55.284Z,16.00
2018-04-23T03:32:55.301Z,24.00
2018-04-23T03:33:55.323Z,24.00
2018-04-23T03:34:55.344Z,28.00
2018-04-23T03:35:55.365Z,32.00
2018-04-23T03:36:55.389Z,36.00
2018-04-23T03:37:55.407Z,44.00
2018-04-23T03:38:55.429Z,52.00
2018-04-23T03:39:55.450Z,56.00
2018-04-23T03:40:55.474Z,64.00
2018-04-23T03:41:55.496Z,76.00
2018-04-23T03:42:55.514Z,84.00
2018-04-23T03:43:55.535Z,96.00
2018-04-23T03:44:55.557Z,104.00
2018-04-23T03:45:55.578Z,116.00
2018-04-23T03:46:55.603Z,132.00
2018-04-23T03:47:55.621Z,148.00
2018-04-23T03:48:55.642Z,164.00
2018-04-23T03:49:55.670Z,180.00
2018-04-23T03:50:55.688Z,196.00
2018-04-23T03:51:55.707Z,216.00
2018-04-23T03:52:55.717Z,240.00
2018-04-23T03:53:55.741Z,260.00
2018-04-23T03:54:55.774Z,284.00
2018-04-23T03:55:55.781Z,308.00
2018-04-23T03:56:55.801Z,328.00
2018-04-23T03:57:55.822Z,356.00
2018-04-23T03:58:55.844Z,384.00
2018-04-23T03:59:55.865Z,412.00
2018-04-23T04:00:55.886Z,448.00
2018-04-23T04:01:55.914Z,480.00
2018-04-23T04:02:55.929Z,512.00
2018-04-23T04:03:55.950Z,548.00
2018-04-23T04:04:55.974Z,584.00
2018-04-23T04:05:55.992Z,624.00
2018-04-23T04:06:56.015Z,668.00
2018-04-23T04:07:56.044Z,708.00
2018-04-23T04:08:56.058Z,744.00
2018-04-23T04:09:56.078Z,788.00
2018-04-23T04:10:56.100Z,828.00
2018-04-23T04:11:56.121Z,872.00
2018-04-23T04:12:56.156Z,916.00
2018-04-23T04:13:56.164Z,964.00
2018-04-23T04:14:56.187Z,1012.00
2018-04-23T04:15:56.207Z,1068.00
2018-04-23T04:16:56.236Z,1124.00
2018-04-23T04:17:56.252Z,1188.00
2018-04-23T04:18:56.271Z,1256.00
2018-04-23T04:19:56.293Z,1328.00
2018-04-23T04:20:56.317Z,1392.00
2018-04-23T04:21:56.335Z,1464.00
2018-04-23T04:22:56.357Z,1532.00
2018-04-23T04:23:56.378Z,1600.00
2018-04-23T04:24:56.401Z,1676.00
2018-04-23T04:25:56.421Z,1756.00
2018-04-23T04:26:56.442Z,1836.00
2018-04-23T04:27:56.463Z,1908.00
2018-04-23T04:28:56.473Z,1976.00
2018-04-23T04:29:56.506Z,2036.00
2018-04-23T04:30:56.516Z,2100.00
2018-04-23T04:31:56.538Z,2168.00
2018-04-23T04:32:56.559Z,2228.00
2018-04-23T04:33:56.580Z,2292.00
2018-04-23T04:34:56.602Z,2352.00
2018-04-23T04:35:56.623Z,2420.00
2018-04-23T04:36:56.646Z,2496.00
2018-04-23T04:37:56.665Z,2580.00
2018-04-23T04:38:56.703Z,2664.00
2018-04-23T04:39:56.712Z,2732.00
2018-04-23T04:40:56.730Z,2792.00
2018-04-23T04:41:56.751Z,2880.00
2018-04-23T04:42:56.773Z,2992.00
2018-04-23T04:43:56.809Z,3088.00
2018-04-23T04:44:56.815Z,3164.00
2018-04-23T04:45:56.836Z,3228.00
2018-04-23T04:46:56.858Z,3316.00
2018-04-23T04:47:56.880Z,3436.00
2018-04-23T04:48:56.901Z,3524.00
2018-04-23T04:49:56.923Z,3588.00
2018-04-23T04:50:56.943Z,3644.00
2018-04-23T04:51:56.964Z,3712.00
2018-04-23T04:52:56.986Z,3792.00
2018-04-23T04:53:57.008Z,3888.00
2018-04-23T04:54:57.029Z,4004.00
2018-04-23T04:55:57.051Z,4156.00
2018-04-23T04:56:57.073Z,4288.00
2018-04-23T04:57:57.093Z,4424.00
2018-04-23T04:58:57.143Z,4548.00
2018-04-23T04:59:57.136Z,4672.00
2018-04-23T05:00:57.158Z,4780.00
2018-04-23T05:01:57.178Z,4860.00
2018-04-23T05:02:57.204Z,4932.00
2018-04-23T05:03:57.227Z,5008.00
2018-04-23T05:04:57.243Z,5092.00
2018-04-23T05:05:57.295Z,5188.00
2018-04-23T05:06:57.286Z,5276.00
2018-04-23T05:07:57.307Z,5344.00
2018-04-23T05:08:57.328Z,5400.00
2018-04-23T05:09:57.349Z,5448.00
2018-04-23T05:10:57.378Z,5484.00
2018-04-23T05:11:57.391Z,5604.00
2018-04-23T05:12:57.415Z,5888.00
2018-04-23T05:13:57.434Z,6276.00
2018-04-23T05:14:57.459Z,6704.00
2018-04-23T05:15:57.478Z,7152.00
2018-04-23T05:16:57.499Z,7528.00
2018-04-23T05:17:57.520Z,7820.00
2018-04-23T05:18:57.542Z,8020.00
2018-04-23T05:19:57.563Z,8228.00
2018-04-23T05:20:57.584Z,8528.00
2018-04-23T05:21:57.606Z,8856.00
2018-04-23T05:22:57.628Z,9180.00
2018-04-23T05:23:57.648Z,9492.00
2018-04-23T05:24:57.670Z,9628.00
2018-04-23T05:25:57.691Z,9688.00
2018-04-23T05:26:57.725Z,9768.00
2018-04-23T05:27:57.760Z,10012.00
2018-04-23T05:28:57.768Z,10120.00
2018-04-23T05:29:57.827Z,10088.00
2018-04-23T05:30:57.810Z,9864.00
2018-04-23T05:31:57.831Z,9572.00
2018-04-23T05:32:57.856Z,9380.00
2018-04-23T05:33:57.875Z,9352.00
2018-04-23T05:34:57.896Z,9476.00
2018-04-23T05:35:57.917Z,9652.00
2018-04-23T05:36:57.951Z,9784.00
2018-04-23T05:37:57.960Z,9880.00
2018-04-23T05:38:57.982Z,10048.00
2018-04-23T05:39:58.016Z,10352.00
2018-04-23T05:40:58.039Z,10684.00
2018-04-23T05:41:58.058Z,10884.00
2018-04-23T05:42:58.080Z,10924.00
2018-04-23T05:43:58.124Z,10888.00
2018-04-23T05:44:58.125Z,10684.00
2018-04-23T05:45:58.144Z,10128.00
2018-04-23T05:46:58.165Z,9584.00
2018-04-23T05:47:58.205Z,9328.00
2018-04-23T05:48:58.220Z,9500.00
2018-04-23T05:49:58.242Z,9916.00
2018-04-23T05:50:58.268Z,10184.00
2018-04-23T05:51:58.284Z,10132.00
2018-04-23T05:52:58.305Z,9928.00
2018-04-23T05:53:58.339Z,9860.00
2018-04-23T05:54:58.363Z,10548.00
2018-04-23T05:55:58.383Z,11812.00
2018-04-23T05:56:58.404Z,13304.00
2018-04-23T05:57:58.425Z,14536.00
2018-04-23T05:58:58.449Z,15264.00
2018-04-23T05:59:58.468Z,15704.00
2018-04-23T06:00:58.489Z,15788.00
2018-04-23T06:01:58.522Z,16328.00
2018-04-23T06:02:58.547Z,15432.00
2018-04-23T06:03:58.565Z,14000.00
2018-04-23T06:04:58.586Z,10964.00
2018-04-23T06:05:58.608Z,8364.00
2018-04-23T06:06:58.642Z,6752.00
2018-04-23T06:07:58.663Z,7320.00
2018-04-23T06:08:58.686Z,8744.00
2018-04-23T06:09:58.705Z,10228.00
2018-04-23T06:10:58.727Z,11248.00
2018-04-23T06:11:58.761Z,11792.00
2018-04-23T06:12:58.795Z,11592.00
2018-04-23T06:13:58.803Z,10988.00
2018-04-23T06:14:58.824Z,10328.00
2018-04-23T06:15:58.858Z,9884.00
2018-04-23T06:16:58.880Z,9512.00
2018-04-23T06:17:58.902Z,9156.00
2018-04-23T06:18:58.923Z,8720.00
2018-04-23T06:19:58.944Z,8216.00
2018-04-23T06:20:58.978Z,7760.00
2018-04-23T06:21:58.999Z,7400.00
2018-04-23T06:22:59.020Z,7104.00
2018-04-23T06:23:59.042Z,6844.00
2018-04-23T06:24:59.076Z,6536.00
2018-04-23T06:25:59.120Z,6212.00
2018-04-23T06:26:59.119Z,5888.00
2018-04-23T06:27:59.141Z,5604.00
2018-04-23T06:28:59.173Z,5384.00
2018-04-23T06:29:59.208Z,5232.00
2018-04-23T06:30:59.215Z,5188.00
2018-04-23T06:31:59.237Z,5232.00
2018-04-23T06:32:59.260Z,5380.00
2018-04-23T06:33:59.293Z,5636.00
2018-04-23T06:34:59.313Z,5944.00
2018-04-23T06:35:59.336Z,6244.00
2018-04-23T06:36:59.358Z,6480.00
2018-04-23T06:37:59.405Z,6644.00
2018-04-23T06:38:59.414Z,6828.00
2018-04-23T06:39:59.434Z,7128.00
2018-04-23T06:40:59.454Z,7592.00
2018-04-23T06:41:59.477Z,8180.00
2018-04-23T06:42:59.510Z,8808.00
2018-04-23T06:43:59.532Z,9528.00
2018-04-23T06:44:59.554Z,10416.00
2018-04-23T06:45:59.575Z,11372.00
2018-04-23T06:46:59.608Z,12192.00
2018-04-23T06:47:59.629Z,12868.00
2018-04-23T06:48:59.649Z,13304.00
2018-04-23T06:49:59.671Z,12976.00
2018-04-23T06:50:59.706Z,11756.00
2018-04-23T06:51:59.728Z,10288.00
2018-04-23T06:52:59.749Z,9124.00
2018-04-23T06:53:59.769Z,8512.00
2018-04-23T06:54:59.796Z,8408.00
2018-04-23T06:55:59.825Z,8440.00
2018-04-23T06:56:59.847Z,8476.00
2018-04-23T06:57:59.868Z,8484.00
2018-04-23T06:58:59.926Z,8252.00
2018-04-23T06:59:59.924Z,7712.00
2018-04-23T07:00:59.945Z,7164.00
2018-04-23T07:01:59.967Z,7096.00
2018-04-23T07:03:00.001Z,7628.00
2018-04-23T07:04:00.038Z,8352.00
2018-04-23T07:05:00.109Z,9028.00
2018-04-23T07:06:00.066Z,10140.00
2018-04-23T07:07:00.088Z,12244.00
2018-04-23T07:08:00.125Z,14392.00
2018-04-23T07:09:00.142Z,15656.00
2018-04-23T07:10:00.164Z,15880.00
2018-04-23T07:11:00.196Z,15252.00
2018-04-23T07:12:00.218Z,14620.00
2018-04-23T07:13:00.239Z,13464.00
2018-04-23T07:14:00.262Z,13104.00
2018-04-23T07:15:00.297Z,12992.00
2018-04-23T07:16:00.317Z,14012.00
2018-04-23T07:17:00.337Z,15616.00
2018-04-23T07:18:00.371Z,16364.00
2018-04-23T07:19:00.392Z,15928.00
2018-04-23T07:20:00.417Z,15464.00
2018-04-23T07:21:00.434Z,16792.00
2018-04-23T07:22:00.470Z,18048.00
2018-04-23T07:23:00.491Z,17004.00
2018-04-23T07:24:00.515Z,16460.00
2018-04-23T07:25:00.545Z,19488.00
2018-04-23T07:26:00.567Z,30176.00
2018-04-23T07:27:00.589Z,39680.00
2018-04-23T07:28:00.622Z,29440.00
2018-04-23T07:29:00.643Z,48992.00
2018-04-23T07:30:00.665Z,50688.00
2018-04-23T07:31:00.699Z,49728.00
2018-04-23T07:32:00.721Z,50624.00
2018-04-23T07:33:00.749Z,16740.00
2018-04-23T07:34:00.776Z,15164.00
2018-04-23T07:35:00.798Z,32416.00
2018-04-23T07:36:00.835Z,54496.00
2018-04-23T07:37:00.853Z,53312.00
2018-04-23T07:38:00.888Z,53632.00
2018-04-23T07:39:00.909Z,54368.00
2018-04-23T07:40:00.956Z,55136.00
2018-04-23T07:41:00.963Z,53024.00
2018-04-23T07:42:00.998Z,54656.00
2018-04-23T07:43:01.020Z,42240.00
2018-04-23T07:44:01.053Z,39744.00
2018-04-23T07:45:01.088Z,52864.00
2018-04-23T07:46:01.110Z,59264.00
2018-04-23T07:47:01.143Z,61632.00
2018-04-23T07:48:01.165Z,60448.00
2018-04-23T07:49:01.198Z,55232.00
2018-04-23T07:50:01.231Z,54144.00
2018-04-23T07:51:01.253Z,55168.00
2018-04-23T07:52:01.289Z,56192.00
2018-04-23T07:53:01.338Z,60800.00
2018-04-23T07:54:01.343Z,57984.00
2018-04-23T07:55:01.378Z,55392.00
2018-04-23T07:56:01.415Z,56032.00
2018-04-23T07:57:01.444Z,59712.00
2018-04-23T07:58:01.471Z,54656.00
2018-04-23T07:59:01.499Z,38720.00
2018-04-23T08:00:01.548Z,29760.00
2018-04-23T08:01:01.555Z,25472.00
2018-04-23T08:02:01.587Z,23168.00
2018-04-23T08:03:01.622Z,21408.00
2018-04-23T08:04:01.655Z,26912.00
2018-04-23T08:05:01.695Z,16760.00
2018-04-23T08:06:01.711Z,14632.00
2018-04-23T08:07:01.744Z,13588.00
2018-04-23T08:08:01.787Z,12812.00
2018-04-23T08:09:01.800Z,14172.00
2018-04-23T08:10:01.834Z,15316.00
2018-04-23T08:11:01.868Z,18016.00
2018-04-23T08:12:01.900Z,18496.00
2018-04-23T08:13:01.923Z,19968.00
2018-04-23T08:14:01.961Z,21664.00
2018-04-23T08:15:01.990Z,22528.00
2018-04-23T08:16:02.011Z,22880.00
2018-04-23T08:17:02.046Z,23840.00
2018-04-23T08:18:02.067Z,25600.00
2018-04-23T08:19:02.100Z,27328.00
2018-04-23T08:20:02.136Z,28288.00
2018-04-23T08:21:02.164Z,28960.00
2018-04-23T08:22:02.189Z,28704.00
2018-04-23T08:23:02.224Z,28288.00
2018-04-23T08:24:02.250Z,27808.00
2018-04-23T08:25:02.280Z,28000.00
2018-04-23T08:26:02.312Z,27776.00
2018-04-23T08:27:02.333Z,27584.00
2018-04-23T08:28:02.369Z,26656.00
2018-04-23T08:29:02.389Z,24704.00
2018-04-23T08:30:02.423Z,22720.00
2018-04-23T08:31:02.456Z,22016.00
2018-04-23T08:32:02.562Z,22784.00
2018-04-23T08:33:02.511Z,25120.00
2018-04-23T08:34:02.580Z,27872.00
2018-04-23T08:35:02.580Z,29504.00
2018-04-23T08:36:02.612Z,28896.00
2018-04-23T08:37:02.635Z,27168.00
2018-04-23T08:38:02.657Z,24992.00
2018-04-23T08:39:02.690Z,23264.00
2018-04-23T08:40:02.726Z,22944.00
2018-04-23T08:41:02.748Z,23200.00
2018-04-23T08:42:02.779Z,22944.00
2018-04-23T08:43:02.813Z,21920.00
2018-04-23T08:44:02.848Z,22400.00
2018-04-23T08:45:02.869Z,24512.00
2018-04-23T08:46:02.903Z,26464.00
2018-04-23T08:47:02.926Z,26528.00
2018-04-23T08:48:02.960Z,25600.00
2018-04-23T08:49:02.995Z,26112.00
2018-04-23T08:50:03.015Z,26048.00
2018-04-23T08:51:03.051Z,24288.00
2018-04-23T08:52:03.082Z,22304.00
2018-04-23T08:53:03.104Z,20384.00
2018-04-23T08:54:03.137Z,18400.00
2018-04-23T08:55:03.172Z,16928.00
2018-04-23T08:56:03.193Z,16416.00
2018-04-23T08:57:03.227Z,16844.00
2018-04-23T08:58:03.260Z,17536.00
2018-04-23T08:59:03.281Z,17952.00
2018-04-23T09:00:03.361Z,18336.00
2018-04-23T09:01:03.349Z,18592.00
2018-04-23T09:02:03.373Z,18784.00
2018-04-23T09:03:03.406Z,18656.00
2018-04-23T09:04:03.427Z,18336.00
2018-04-23T09:05:03.460Z,18176.00
2018-04-23T09:06:03.494Z,18272.00
2018-04-23T09:07:03.516Z,18432.00
2018-04-23T09:08:03.549Z,18720.00
2018-04-23T09:09:03.572Z,19232.00
2018-04-23T09:10:03.608Z,19872.00
2018-04-23T09:11:03.638Z,20544.00
2018-04-23T09:12:03.677Z,21376.00
2018-04-23T09:13:03.694Z,22176.00
2018-04-23T09:14:03.715Z,23008.00
2018-04-23T09:15:03.749Z,23776.00
2018-04-23T09:16:03.772Z,24224.00
2018-04-23T09:17:03.804Z,24256.00
2018-04-23T09:18:03.838Z,24160.00
2018-04-23T09:19:03.876Z,24384.00
2018-04-23T09:20:03.893Z,24832.00
2018-04-23T09:21:03.926Z,25344.00
2018-04-23T09:22:03.948Z,26240.00
2018-04-23T09:23:03.982Z,26944.00
2018-04-23T09:24:04.005Z,26496.00
2018-04-23T09:25:04.039Z,25696.00
2018-04-23T09:26:04.058Z,24992.00
2018-04-23T09:27:04.093Z,24640.00
2018-04-23T09:28:04.115Z,24704.00
2018-04-23T09:29:04.148Z,24064.00
2018-04-23T09:30:04.182Z,22528.00
2018-04-23T09:31:04.204Z,20416.00
2018-04-23T09:32:04.236Z,17664.00
2018-04-23T09:33:04.263Z,15116.00
2018-04-23T09:34:04.294Z,13456.00
2018-04-23T09:35:04.325Z,12508.00
2018-04-23T09:36:04.349Z,12048.00
2018-04-23T09:37:04.381Z,11784.00
2018-04-23T09:38:04.414Z,11724.00
2018-04-23T09:39:04.449Z,11772.00
2018-04-23T09:40:04.458Z,11772.00
2018-04-23T09:41:04.492Z,11872.00
2018-04-23T09:42:04.514Z,12128.00
2018-04-23T09:43:04.546Z,12576.00
2018-04-23T09:44:04.581Z,13120.00
2018-04-23T09:45:04.602Z,13648.00
2018-04-23T09:46:04.648Z,13948.00
2018-04-23T09:47:04.656Z,14044.00
2018-04-23T09:48:04.690Z,14104.00
2018-04-23T09:49:04.713Z,14224.00
2018-04-23T09:50:04.789Z,14472.00
2018-04-23T09:51:04.767Z,14932.00
2018-04-23T09:52:04.803Z,15476.00
2018-04-23T09:53:04.823Z,15984.00
2018-04-23T09:54:04.845Z,16476.00
2018-04-23T09:55:04.878Z,16720.00
2018-04-23T09:56:04.900Z,16624.00
2018-04-23T09:57:04.946Z,16396.00
2018-04-23T09:58:04.957Z,16084.00
2018-04-23T09:59:04.993Z,15748.00
2018-04-23T10:00:05.014Z,15496.00
2018-04-23T10:01:05.037Z,15244.00
2018-04-23T10:02:05.065Z,15044.00
2018-04-23T10:03:05.087Z,14996.00
2018-04-23T10:04:05.124Z,14968.00
2018-04-23T10:05:05.142Z,14976.00
2018-04-23T10:06:05.221Z,14956.00
2018-04-23T10:07:05.198Z,14948.00
2018-04-23T10:08:05.219Z,15216.00
2018-04-23T10:09:05.244Z,15880.00
2018-04-23T10:10:05.273Z,16512.00
2018-04-23T10:11:05.295Z,16816.00
2018-04-23T10:12:05.334Z,17020.00
2018-04-23T10:13:05.350Z,17568.00
2018-04-23T10:14:05.372Z,18336.00
2018-04-23T10:15:05.405Z,19168.00
2018-04-23T10:16:05.427Z,19552.00
2018-04-23T10:17:05.448Z,19488.00
2018-04-23T10:18:05.490Z,19552.00
2018-04-23T10:19:05.503Z,20320.00
2018-04-23T10:20:05.526Z,21280.00
2018-04-23T10:21:05.559Z,21472.00
2018-04-23T10:22:05.579Z,20960.00
2018-04-23T10:23:05.619Z,20000.00
2018-04-23T10:24:05.639Z,19136.00
2018-04-23T10:25:05.659Z,18048.00
2018-04-23T10:26:05.691Z,17064.00
2018-04-23T10:27:05.712Z,16384.00
2018-04-23T10:28:05.733Z,15416.00
2018-04-23T10:29:05.772Z,14984.00
2018-04-23T10:30:05.794Z,15112.00
2018-04-23T10:31:05.811Z,15676.00
2018-04-23T10:32:05.844Z,16524.00
2018-04-23T10:33:05.868Z,16984.00
2018-04-23T10:34:05.888Z,17032.00
2018-04-23T10:35:05.922Z,17164.00
2018-04-23T10:36:05.952Z,17632.00
2018-04-23T10:37:05.976Z,18208.00
2018-04-23T10:38:05.998Z,18880.00
2018-04-23T10:39:06.021Z,19488.00
2018-04-23T10:40:06.053Z,19840.00
2018-04-23T10:41:06.075Z,19872.00
2018-04-23T10:42:06.097Z,19616.00
2018-04-23T10:43:06.130Z,19072.00
2018-04-23T10:44:06.152Z,18752.00
2018-04-23T10:45:06.173Z,19360.00
2018-04-23T10:46:06.208Z,20608.00
2018-04-23T10:47:06.228Z,21760.00
2018-04-23T10:48:06.262Z,22400.00
2018-04-23T10:49:06.301Z,22784.00
2018-04-23T10:50:06.305Z,23008.00
2018-04-23T10:51:06.350Z,22688.00
2018-04-23T10:52:06.360Z,22720.00
2018-04-23T10:53:06.384Z,23392.00
2018-04-23T10:54:06.415Z,23584.00
2018-04-23T10:55:06.437Z,23904.00
2018-04-23T10:56:06.471Z,23808.00
2018-04-23T10:57:06.492Z,23008.00
2018-04-23T10:58:06.513Z,22880.00
2018-04-23T10:59:06.547Z,23616.00
2018-04-23T11:00:06.570Z,25952.00
2018-04-23T11:01:06.609Z,29856.00
2018-04-23T11:02:06.625Z,56192.00
2018-04-23T11:03:06.657Z,43040.00
2018-04-23T11:04:06.678Z,90304.00
2018-04-23T11:05:06.700Z,42560.00
2018-04-23T11:06:06.736Z,36896.00
2018-04-23T11:07:06.755Z,70432.00
2018-04-23T11:08:06.790Z,84448.00
2018-04-23T11:09:06.810Z,55552.00
2018-04-23T11:10:06.845Z,61760.00
2018-04-23T11:11:06.879Z,72864.00
2018-04-23T11:12:06.899Z,100480.00
2018-04-23T11:13:06.936Z,86112.00
2018-04-23T11:14:06.956Z,90880.00
2018-04-23T11:15:06.990Z,87360.00
2018-04-23T11:16:07.023Z,63424.00
2018-04-23T11:17:07.056Z,62816.00
2018-04-23T11:18:07.091Z,77536.00
2018-04-23T11:19:07.113Z,85696.00
2018-04-23T11:20:07.146Z,84416.00
2018-04-23T11:21:07.181Z,86048.00
2018-04-23T11:22:07.213Z,86880.00
2018-04-23T11:23:07.248Z,87968.00
2018-04-23T11:24:07.283Z,83584.00
2018-04-23T11:25:07.348Z,79680.00
2018-04-23T11:26:07.349Z,79232.00
2018-04-23T11:27:07.384Z,82880.00
2018-04-23T11:28:07.418Z,82752.00
2018-04-23T11:29:07.455Z,88992.00
2018-04-23T11:30:07.486Z,89696.00
2018-04-23T11:31:07.531Z,66368.00
2018-04-23T11:32:07.566Z,41120.00
2018-04-23T11:33:07.599Z,37408.00
2018-04-23T11:34:07.633Z,66400.00
2018-04-23T11:35:07.667Z,74432.00
2018-04-23T11:36:07.701Z,76704.00
2018-04-23T11:37:07.736Z,79168.00
2018-04-23T11:38:07.784Z,81504.00
2018-04-23T11:39:07.819Z,78624.00
2018-04-23T11:40:07.849Z,78080.00
2018-04-23T11:41:07.882Z,80896.00
2018-04-23T11:42:07.916Z,82112.00
2018-04-23T11:43:07.950Z,82464.00
2018-04-23T11:44:07.998Z,84992.00
2018-04-23T11:45:08.049Z,83136.00
2018-04-23T11:46:08.073Z,77440.00
2018-04-23T11:47:08.110Z,71776.00
2018-04-23T11:48:08.133Z,73056.00
2018-04-23T11:49:08.180Z,72320.00
2018-04-23T11:50:08.212Z,82624.00
2018-04-23T11:51:08.247Z,81280.00
2018-04-23T11:52:08.282Z,80160.00
2018-04-23T11:53:08.336Z,77152.00
2018-04-23T11:54:08.361Z,79488.00
2018-04-23T11:55:08.396Z,83648.00
2018-04-23T11:56:08.429Z,82464.00
2018-04-23T11:57:08.475Z,87936.00
2018-04-23T11:58:08.509Z,87904.00
2018-04-23T11:59:08.545Z,86656.00
2018-04-23T12:00:08.590Z,80992.00
2018-04-23T12:01:08.622Z,54048.00
2018-04-23T12:02:08.657Z,74656.00
2018-04-23T12:03:08.693Z,70944.00
2018-04-23T12:04:08.749Z,82336.00
2018-04-23T12:05:08.775Z,80032.00
2018-04-23T12:06:08.804Z,67072.00
2018-04-23T12:07:08.854Z,69184.00
2018-04-23T12:08:08.886Z,73280.00
2018-04-23T12:09:08.919Z,77920.00
2018-04-23T12:10:08.966Z,84000.00
2018-04-23T12:11:09.000Z,72864.00
2018-04-23T12:12:09.034Z,85856.00
2018-04-23T12:13:09.070Z,88000.00
2018-04-23T12:14:09.115Z,82656.00
2018-04-23T12:15:09.147Z,85216.00
2018-04-23T12:16:09.234Z,81056.00